THY2TK FMCH-HTZA
Flight info
| Callsign | THY2TK |
|---|---|
| Flight time | 1h 8m |
| Altitude | 38000 |
| Route | VABIT DCT KINAN DCT APGEN DCT ETMIS DCT UVMEX DCT AVEKI DCT IBLUV |
| Aircraft | B738/M-SDE2E3FGHIRWXY/LB1 |
Departure
| Time | 2026-05-05 17:34 |
|---|---|
| Airport | Prince Said Ibrahim International Airport (FMCH) |
Arrival
| Time | 2026-05-05 18:43 |
|---|---|
| Airport | Abeid Amani Karume International Airport (HTZA) |
| Time | Latitude | Longitude | Altitude | Speed | Heading |
|---|---|---|---|---|---|
| 2026-05-05 17:12 | -11.53472 | 43.27448 | 81 ft | 0 kts | 109° |
| 2026-05-05 17:24 | -11.53471 | 43.27447 | 80 ft | 2 kts | 108° |
| 2026-05-05 17:24 | -11.53462 | 43.27428 | 85 ft | 4 kts | 156° |
| 2026-05-05 17:24 | -11.53446 | 43.27433 | 85 ft | 4 kts | 223° |
| 2026-05-05 17:24 | -11.53425 | 43.27449 | 83 ft | 4 kts | 199° |
| 2026-05-05 17:25 | -11.53421 | 43.27451 | 84 ft | 1 kts | 192° |
| 2026-05-05 17:27 | -11.53422 | 43.27450 | 84 ft | 1 kts | 195° |
| 2026-05-05 17:27 | -11.53432 | 43.27439 | 85 ft | 5 kts | 237° |
| 2026-05-05 17:27 | -11.53468 | 43.27405 | 84 ft | 10 kts | 205° |
| 2026-05-05 17:27 | -11.53552 | 43.27386 | 80 ft | 15 kts | 191° |
| 2026-05-05 17:28 | -11.53660 | 43.27363 | 83 ft | 14 kts | 206° |
| 2026-05-05 17:28 | -11.53675 | 43.27262 | 81 ft | 17 kts | 279° |
| 2026-05-05 17:28 | -11.53644 | 43.27156 | 74 ft | 13 kts | 318° |
| 2026-05-05 17:28 | -11.53555 | 43.27158 | 82 ft | 15 kts | 11° |
| 2026-05-05 17:29 | -11.53446 | 43.27177 | 85 ft | 17 kts | 8° |
| 2026-05-05 17:29 | -11.53319 | 43.27199 | 87 ft | 20 kts | 10° |
| 2026-05-05 17:29 | -11.53169 | 43.27226 | 85 ft | 24 kts | 10° |
| 2026-05-05 17:29 | -11.52994 | 43.27257 | 86 ft | 27 kts | 9° |
| 2026-05-05 17:30 | -11.52798 | 43.27291 | 86 ft | 30 kts | 9° |
| 2026-05-05 17:30 | -11.52632 | 43.27320 | 84 ft | 22 kts | 9° |
| 2026-05-05 17:30 | -11.52481 | 43.27347 | 87 ft | 22 kts | 10° |
| 2026-05-05 17:30 | -11.52333 | 43.27373 | 86 ft | 21 kts | 9° |
| 2026-05-05 17:31 | -11.52197 | 43.27398 | 86 ft | 17 kts | 11° |
| 2026-05-05 17:31 | -11.52132 | 43.27430 | 87 ft | 10 kts | 45° |
| 2026-05-05 17:31 | -11.52110 | 43.27455 | 90 ft | 0 kts | 46° |
| 2026-05-05 17:31 | -11.52109 | 43.27456 | 90 ft | 0 kts | 42° |
| 2026-05-05 17:32 | -11.52108 | 43.27456 | 90 ft | 0 kts | 35° |
| 2026-05-05 17:32 | -11.52107 | 43.27456 | 87 ft | 0 kts | 26° |
| 2026-05-05 17:32 | -11.52104 | 43.27454 | 87 ft | 0 kts | 348° |
| 2026-05-05 17:32 | -11.52095 | 43.27442 | 89 ft | 4 kts | 293° |
| 2026-05-05 17:33 | -11.52111 | 43.27416 | 89 ft | 5 kts | 201° |
| 2026-05-05 17:33 | -11.52120 | 43.27415 | 89 ft | 0 kts | 191° |
| 2026-05-05 17:33 | -11.52150 | 43.27409 | 87 ft | 26 kts | 190° |
| 2026-05-05 17:34 | -11.52610 | 43.27327 | 86 ft | 105 kts | 189° |
| 2026-05-05 17:34 | -11.53552 | 43.27167 | 160 ft | 161 kts | 189° |
| 2026-05-05 17:34 | -11.54642 | 43.26880 | 944 ft | 161 kts | 199° |
| 2026-05-05 17:34 | -11.55672 | 43.26414 | 1741 ft | 166 kts | 210° |
| 2026-05-05 17:35 | -11.56554 | 43.25572 | 2436 ft | 182 kts | 232° |
| 2026-05-05 17:35 | -11.56972 | 43.24315 | 3099 ft | 202 kts | 266° |
| 2026-05-05 17:35 | -11.56838 | 43.22795 | 3482 ft | 225 kts | 276° |
| 2026-05-05 17:35 | -11.56602 | 43.21146 | 3813 ft | 247 kts | 279° |
| 2026-05-05 17:36 | -11.55870 | 43.19474 | 4039 ft | 274 kts | 309° |
| 2026-05-05 17:36 | -11.54406 | 43.18198 | 4851 ft | 278 kts | 326° |
| 2026-05-05 17:36 | -11.52785 | 43.17114 | 5815 ft | 280 kts | 328° |
| 2026-05-05 17:36 | -11.51222 | 43.16103 | 6651 ft | 283 kts | 328° |
| 2026-05-05 17:37 | -11.49550 | 43.15024 | 7503 ft | 287 kts | 328° |
| 2026-05-05 17:37 | -11.47853 | 43.13924 | 8305 ft | 292 kts | 328° |
| 2026-05-05 17:37 | -11.46128 | 43.12798 | 9143 ft | 296 kts | 328° |
| 2026-05-05 17:37 | -11.44410 | 43.11672 | 9961 ft | 299 kts | 328° |
| 2026-05-05 17:38 | -11.42636 | 43.10505 | 10533 ft | 313 kts | 328° |
| 2026-05-05 17:38 | -11.40739 | 43.09256 | 10767 ft | 336 kts | 328° |
| 2026-05-05 17:38 | -11.38738 | 43.07935 | 11234 ft | 348 kts | 328° |
| 2026-05-05 17:38 | -11.36685 | 43.06579 | 11890 ft | 353 kts | 328° |
| 2026-05-05 17:39 | -11.34612 | 43.05208 | 12611 ft | 357 kts | 328° |
| 2026-05-05 17:39 | -11.32520 | 43.03826 | 13316 ft | 361 kts | 329° |
| 2026-05-05 17:39 | -11.30400 | 43.02425 | 13971 ft | 365 kts | 329° |
| 2026-05-05 17:39 | -11.28258 | 43.01010 | 14586 ft | 368 kts | 329° |
| 2026-05-05 17:40 | -11.26097 | 42.99583 | 15228 ft | 371 kts | 329° |
| 2026-05-05 17:40 | -11.23938 | 42.98123 | 15844 ft | 375 kts | 325° |
| 2026-05-05 17:40 | -11.21971 | 42.96356 | 16434 ft | 380 kts | 315° |
| 2026-05-05 17:40 | -11.20157 | 42.94376 | 17044 ft | 384 kts | 314° |
| 2026-05-05 17:41 | -11.18357 | 42.92352 | 17638 ft | 387 kts | 314° |
| 2026-05-05 17:41 | -11.16543 | 42.90303 | 18222 ft | 391 kts | 314° |
| 2026-05-05 17:41 | -11.14713 | 42.88244 | 18727 ft | 394 kts | 314° |
| 2026-05-05 17:41 | -11.12863 | 42.86175 | 19231 ft | 397 kts | 314° |
| 2026-05-05 17:42 | -11.10989 | 42.84090 | 19736 ft | 400 kts | 314° |
| 2026-05-05 17:42 | -11.09105 | 42.82001 | 20232 ft | 402 kts | 314° |
| 2026-05-05 17:42 | -11.07203 | 42.79897 | 20726 ft | 405 kts | 314° |
| 2026-05-05 17:42 | -11.05321 | 42.77818 | 21201 ft | 408 kts | 314° |
| 2026-05-05 17:43 | -11.03894 | 42.76241 | 21555 ft | 410 kts | 314° |
| 2026-05-05 17:43 | -11.01953 | 42.74098 | 22024 ft | 413 kts | 314° |
| 2026-05-05 17:43 | -10.99997 | 42.71939 | 22488 ft | 416 kts | 314° |
| 2026-05-05 17:43 | -10.98030 | 42.69767 | 22940 ft | 419 kts | 314° |
| 2026-05-05 17:44 | -10.96047 | 42.67579 | 23377 ft | 422 kts | 314° |
| 2026-05-05 17:44 | -10.94042 | 42.65366 | 23778 ft | 425 kts | 314° |
| 2026-05-05 17:44 | -10.92032 | 42.63148 | 24147 ft | 427 kts | 314° |
| 2026-05-05 17:44 | -10.90015 | 42.60923 | 24519 ft | 429 kts | 314° |
| 2026-05-05 17:45 | -10.88012 | 42.58713 | 24886 ft | 431 kts | 314° |
| 2026-05-05 17:45 | -10.85976 | 42.56468 | 25263 ft | 433 kts | 314° |
| 2026-05-05 17:45 | -10.83928 | 42.54211 | 25621 ft | 435 kts | 313° |
| 2026-05-05 17:45 | -10.81868 | 42.51940 | 25971 ft | 437 kts | 313° |
| 2026-05-05 17:46 | -10.79803 | 42.49664 | 26323 ft | 439 kts | 313° |
| 2026-05-05 17:46 | -10.77728 | 42.47378 | 26679 ft | 440 kts | 313° |
| 2026-05-05 17:46 | -10.75642 | 42.45087 | 27041 ft | 442 kts | 314° |
| 2026-05-05 17:46 | -10.73371 | 42.42979 | 27370 ft | 443 kts | 323° |
| 2026-05-05 17:47 | -10.70809 | 42.41236 | 27702 ft | 444 kts | 328° |
| 2026-05-05 17:47 | -10.68170 | 42.39584 | 28015 ft | 446 kts | 329° |
| 2026-05-05 17:47 | -10.65502 | 42.37944 | 28318 ft | 449 kts | 329° |
| 2026-05-05 17:47 | -10.62825 | 42.36300 | 28622 ft | 451 kts | 329° |
| 2026-05-05 17:48 | -10.60138 | 42.34640 | 28915 ft | 453 kts | 328° |
| 2026-05-05 17:48 | -10.57480 | 42.32986 | 29205 ft | 455 kts | 328° |
| 2026-05-05 17:48 | -10.54778 | 42.31295 | 29502 ft | 456 kts | 328° |
| 2026-05-05 17:48 | -10.52071 | 42.29594 | 29772 ft | 458 kts | 328° |
| 2026-05-05 17:49 | -10.49354 | 42.27883 | 30052 ft | 460 kts | 328° |
| 2026-05-05 17:49 | -10.46625 | 42.26164 | 30290 ft | 461 kts | 328° |
| 2026-05-05 17:49 | -10.43887 | 42.24438 | 30513 ft | 463 kts | 328° |
| 2026-05-05 17:49 | -10.41148 | 42.22713 | 30747 ft | 464 kts | 328° |
| 2026-05-05 17:50 | -10.38397 | 42.20981 | 30965 ft | 466 kts | 328° |
| 2026-05-05 17:50 | -10.35641 | 42.19246 | 31194 ft | 467 kts | 328° |
| 2026-05-05 17:50 | -10.32873 | 42.17505 | 31424 ft | 468 kts | 328° |
| 2026-05-05 17:50 | -10.30106 | 42.15764 | 31714 ft | 467 kts | 328° |
| 2026-05-05 17:51 | -10.27377 | 42.14048 | 32049 ft | 466 kts | 328° |
| 2026-05-05 17:51 | -10.24593 | 42.12298 | 32407 ft | 464 kts | 329° |
| 2026-05-05 17:51 | -10.21886 | 42.10596 | 32721 ft | 463 kts | 329° |
| 2026-05-05 17:51 | -10.19147 | 42.08874 | 33014 ft | 463 kts | 329° |
| 2026-05-05 17:52 | -10.16410 | 42.07155 | 33331 ft | 462 kts | 329° |
| 2026-05-05 17:52 | -10.13682 | 42.05441 | 33673 ft | 461 kts | 329° |
| 2026-05-05 17:52 | -10.10961 | 42.03731 | 34005 ft | 460 kts | 329° |
| 2026-05-05 17:52 | -10.08244 | 42.02025 | 34271 ft | 459 kts | 329° |
| 2026-05-05 17:53 | -10.05531 | 42.00321 | 34548 ft | 459 kts | 329° |
| 2026-05-05 17:53 | -10.02820 | 41.98619 | 34807 ft | 458 kts | 329° |
| 2026-05-05 17:53 | -10.00113 | 41.96920 | 35074 ft | 457 kts | 329° |
| 2026-05-05 17:53 | -9.97412 | 41.95225 | 35355 ft | 456 kts | 329° |
| 2026-05-05 17:54 | -9.94718 | 41.93535 | 35609 ft | 456 kts | 328° |
| 2026-05-05 17:54 | -9.92016 | 41.91840 | 35856 ft | 455 kts | 328° |
| 2026-05-05 17:54 | -9.89322 | 41.90151 | 36116 ft | 455 kts | 328° |
| 2026-05-05 17:54 | -9.86633 | 41.88465 | 36364 ft | 454 kts | 328° |
| 2026-05-05 17:55 | -9.83945 | 41.86780 | 36623 ft | 453 kts | 328° |
| 2026-05-05 17:55 | -9.81266 | 41.85101 | 36880 ft | 453 kts | 328° |
| 2026-05-05 17:55 | -9.78587 | 41.83422 | 37102 ft | 452 kts | 328° |
| 2026-05-05 17:55 | -9.75906 | 41.81743 | 37339 ft | 452 kts | 328° |
| 2026-05-05 17:56 | -9.73267 | 41.80090 | 37586 ft | 451 kts | 328° |
| 2026-05-05 17:56 | -9.70562 | 41.78396 | 37816 ft | 451 kts | 328° |
| 2026-05-05 17:56 | -9.67930 | 41.76748 | 37989 ft | 451 kts | 328° |
| 2026-05-05 17:57 | -9.62561 | 41.73386 | 37980 ft | 453 kts | 328° |
| 2026-05-05 17:57 | -9.57209 | 41.70038 | 37972 ft | 450 kts | 328° |
| 2026-05-05 17:58 | -9.51901 | 41.66718 | 37975 ft | 447 kts | 328° |
| 2026-05-05 17:58 | -9.46620 | 41.63415 | 37980 ft | 445 kts | 328° |
| 2026-05-05 17:59 | -9.41351 | 41.60122 | 37984 ft | 444 kts | 328° |
| 2026-05-05 17:59 | -9.36089 | 41.56834 | 37981 ft | 445 kts | 328° |
| 2026-05-05 18:00 | -9.31042 | 41.53682 | 37981 ft | 447 kts | 328° |
| 2026-05-05 18:00 | -9.25785 | 41.50400 | 37988 ft | 449 kts | 328° |
| 2026-05-05 18:01 | -9.20489 | 41.47094 | 37986 ft | 451 kts | 328° |
| 2026-05-05 18:01 | -9.15126 | 41.43748 | 37985 ft | 453 kts | 328° |
| 2026-05-05 18:02 | -9.10657 | 41.40960 | 37982 ft | 455 kts | 329° |
| 2026-05-05 18:02 | -9.05262 | 41.37597 | 37981 ft | 456 kts | 329° |
| 2026-05-05 18:03 | -8.99852 | 41.34224 | 37981 ft | 457 kts | 329° |
| 2026-05-05 18:03 | -8.94439 | 41.30851 | 37966 ft | 457 kts | 329° |
| 2026-05-05 18:04 | -8.89030 | 41.27482 | 37981 ft | 456 kts | 329° |
| 2026-05-05 18:04 | -8.83630 | 41.24119 | 37988 ft | 455 kts | 329° |
| 2026-05-05 18:05 | -8.78244 | 41.20767 | 37979 ft | 454 kts | 329° |
| 2026-05-05 18:05 | -8.72904 | 41.17445 | 37982 ft | 453 kts | 329° |
| 2026-05-05 18:06 | -8.67540 | 41.14108 | 37979 ft | 452 kts | 329° |
| 2026-05-05 18:06 | -8.62189 | 41.10781 | 37981 ft | 451 kts | 329° |
| 2026-05-05 18:07 | -8.56840 | 41.07456 | 37980 ft | 451 kts | 329° |
| 2026-05-05 18:07 | -8.51496 | 41.04135 | 37981 ft | 450 kts | 329° |
| 2026-05-05 18:08 | -8.46160 | 41.00821 | 37981 ft | 450 kts | 329° |
| 2026-05-05 18:08 | -8.40820 | 40.97505 | 37975 ft | 451 kts | 329° |
| 2026-05-05 18:09 | -8.35509 | 40.94207 | 37976 ft | 451 kts | 329° |
| 2026-05-05 18:09 | -8.30155 | 40.90885 | 37979 ft | 452 kts | 330° |
| 2026-05-05 18:10 | -8.24796 | 40.87559 | 37975 ft | 452 kts | 330° |
| 2026-05-05 18:10 | -8.19427 | 40.84229 | 37978 ft | 453 kts | 330° |
| 2026-05-05 18:11 | -8.14097 | 40.80820 | 37980 ft | 454 kts | 328° |
| 2026-05-05 18:11 | -8.08798 | 40.77334 | 37981 ft | 454 kts | 328° |
| 2026-05-05 18:12 | -8.03496 | 40.73857 | 37979 ft | 455 kts | 328° |
| 2026-05-05 18:12 | -7.98176 | 40.70386 | 37974 ft | 455 kts | 328° |
| 2026-05-05 18:13 | -7.92891 | 40.66942 | 37975 ft | 455 kts | 329° |
| 2026-05-05 18:13 | -7.87572 | 40.63475 | 37943 ft | 456 kts | 328° |
| 2026-05-05 18:13 | -7.84885 | 40.61725 | 37412 ft | 462 kts | 329° |
| 2026-05-05 18:14 | -7.82195 | 40.59975 | 36884 ft | 459 kts | 329° |
| 2026-05-05 18:14 | -7.79500 | 40.58259 | 36330 ft | 457 kts | 329° |
| 2026-05-05 18:14 | -7.76804 | 40.56573 | 35944 ft | 452 kts | 330° |
| 2026-05-05 18:14 | -7.74139 | 40.54918 | 35513 ft | 449 kts | 330° |
| 2026-05-05 18:15 | -7.71483 | 40.53269 | 35085 ft | 446 kts | 330° |
| 2026-05-05 18:15 | -7.68852 | 40.51634 | 34656 ft | 443 kts | 330° |
| 2026-05-05 18:15 | -7.66241 | 40.50008 | 34228 ft | 440 kts | 330° |
| 2026-05-05 18:15 | -7.63639 | 40.48384 | 33778 ft | 438 kts | 330° |
| 2026-05-05 18:16 | -7.61055 | 40.46771 | 33324 ft | 435 kts | 330° |
| 2026-05-05 18:16 | -7.58495 | 40.45171 | 32888 ft | 432 kts | 330° |
| 2026-05-05 18:16 | -7.55981 | 40.43600 | 32472 ft | 429 kts | 330° |
| 2026-05-05 18:16 | -7.53449 | 40.42018 | 32061 ft | 426 kts | 330° |
| 2026-05-05 18:17 | -7.50938 | 40.40449 | 31656 ft | 423 kts | 330° |
| 2026-05-05 18:17 | -7.48443 | 40.38891 | 31254 ft | 420 kts | 330° |
| 2026-05-05 18:17 | -7.45962 | 40.37342 | 30847 ft | 418 kts | 330° |
| 2026-05-05 18:17 | -7.43491 | 40.35799 | 30437 ft | 417 kts | 330° |
| 2026-05-05 18:18 | -7.41028 | 40.34262 | 30010 ft | 415 kts | 330° |
| 2026-05-05 18:18 | -7.38583 | 40.32735 | 29555 ft | 413 kts | 330° |
| 2026-05-05 18:18 | -7.36149 | 40.31216 | 29124 ft | 410 kts | 330° |
| 2026-05-05 18:18 | -7.33730 | 40.29706 | 28698 ft | 407 kts | 330° |
| 2026-05-05 18:19 | -7.31333 | 40.28211 | 28287 ft | 404 kts | 330° |
| 2026-05-05 18:19 | -7.28955 | 40.26727 | 27871 ft | 401 kts | 330° |
| 2026-05-05 18:19 | -7.26591 | 40.25252 | 27464 ft | 398 kts | 330° |
| 2026-05-05 18:19 | -7.24274 | 40.23807 | 27068 ft | 395 kts | 330° |
| 2026-05-05 18:20 | -7.21942 | 40.22353 | 26668 ft | 393 kts | 330° |
| 2026-05-05 18:20 | -7.19615 | 40.20901 | 26273 ft | 391 kts | 330° |
| 2026-05-05 18:20 | -7.17306 | 40.19462 | 25868 ft | 389 kts | 330° |
| 2026-05-05 18:20 | -7.15004 | 40.18027 | 25459 ft | 388 kts | 330° |
| 2026-05-05 18:21 | -7.12748 | 40.16621 | 25064 ft | 387 kts | 330° |
| 2026-05-05 18:21 | -7.10467 | 40.15199 | 24664 ft | 385 kts | 330° |
| 2026-05-05 18:21 | -7.08188 | 40.13779 | 24263 ft | 384 kts | 330° |
| 2026-05-05 18:21 | -7.05921 | 40.12367 | 23867 ft | 383 kts | 330° |
| 2026-05-05 18:22 | -7.03655 | 40.10955 | 23447 ft | 382 kts | 330° |
| 2026-05-05 18:22 | -7.01398 | 40.09548 | 23007 ft | 381 kts | 330° |
| 2026-05-05 18:22 | -6.99157 | 40.08152 | 22595 ft | 378 kts | 330° |
| 2026-05-05 18:22 | -6.96929 | 40.06764 | 22204 ft | 375 kts | 330° |
| 2026-05-05 18:23 | -6.94717 | 40.05386 | 21814 ft | 372 kts | 330° |
| 2026-05-05 18:23 | -6.92525 | 40.04021 | 21440 ft | 369 kts | 330° |
| 2026-05-05 18:23 | -6.90350 | 40.02667 | 21053 ft | 367 kts | 330° |
| 2026-05-05 18:23 | -6.88185 | 40.01318 | 20676 ft | 364 kts | 330° |
| 2026-05-05 18:24 | -6.86065 | 39.99999 | 20308 ft | 362 kts | 330° |
| 2026-05-05 18:24 | -6.83931 | 39.98670 | 19938 ft | 359 kts | 330° |
| 2026-05-05 18:24 | -6.81812 | 39.97351 | 19566 ft | 357 kts | 330° |
| 2026-05-05 18:24 | -6.79705 | 39.96040 | 19192 ft | 355 kts | 330° |
| 2026-05-05 18:25 | -6.77606 | 39.94730 | 18824 ft | 353 kts | 330° |
| 2026-05-05 18:25 | -6.76228 | 39.93866 | 18584 ft | 352 kts | 330° |
| 2026-05-05 18:25 | -6.73457 | 39.92124 | 18065 ft | 350 kts | 330° |
| 2026-05-05 18:25 | -6.71400 | 39.90830 | 17666 ft | 347 kts | 330° |
| 2026-05-05 18:26 | -6.69358 | 39.89546 | 17281 ft | 345 kts | 330° |
| 2026-05-05 18:26 | -6.67333 | 39.88273 | 16914 ft | 342 kts | 330° |
| 2026-05-05 18:26 | -6.65323 | 39.87010 | 16550 ft | 339 kts | 329° |
| 2026-05-05 18:26 | -6.63329 | 39.85757 | 16192 ft | 336 kts | 330° |
| 2026-05-05 18:27 | -6.61356 | 39.84517 | 15839 ft | 333 kts | 330° |
| 2026-05-05 18:27 | -6.59398 | 39.83287 | 15489 ft | 331 kts | 329° |
| 2026-05-05 18:27 | -6.57454 | 39.82066 | 15149 ft | 328 kts | 329° |
| 2026-05-05 18:27 | -6.55522 | 39.80854 | 14794 ft | 326 kts | 329° |
| 2026-05-05 18:28 | -6.51695 | 39.78451 | 14111 ft | 322 kts | 329° |
| 2026-05-05 18:28 | -6.49795 | 39.77259 | 13757 ft | 321 kts | 329° |
| 2026-05-05 18:28 | -6.47905 | 39.76073 | 13372 ft | 319 kts | 329° |
| 2026-05-05 18:29 | -6.46027 | 39.74893 | 13004 ft | 317 kts | 329° |
| 2026-05-05 18:29 | -6.44162 | 39.73722 | 12650 ft | 315 kts | 329° |
| 2026-05-05 18:29 | -6.42307 | 39.72558 | 12303 ft | 313 kts | 329° |
| 2026-05-05 18:29 | -6.40465 | 39.71402 | 11961 ft | 311 kts | 329° |
| 2026-05-05 18:30 | -6.38633 | 39.70252 | 11622 ft | 309 kts | 329° |
| 2026-05-05 18:30 | -6.36813 | 39.69109 | 11295 ft | 308 kts | 329° |
| 2026-05-05 18:30 | -6.35000 | 39.67972 | 10943 ft | 307 kts | 329° |
| 2026-05-05 18:30 | -6.33188 | 39.66836 | 10597 ft | 306 kts | 330° |
| 2026-05-05 18:31 | -6.31383 | 39.65703 | 10258 ft | 306 kts | 330° |
| 2026-05-05 18:31 | -6.29600 | 39.64584 | 10100 ft | 299 kts | 330° |
| 2026-05-05 18:31 | -6.27857 | 39.63491 | 9915 ft | 292 kts | 330° |
| 2026-05-05 18:31 | -6.26150 | 39.62389 | 9609 ft | 292 kts | 324° |
| 2026-05-05 18:32 | -6.24816 | 39.60869 | 9384 ft | 289 kts | 306° |
| 2026-05-05 18:32 | -6.23685 | 39.59209 | 9084 ft | 287 kts | 304° |
| 2026-05-05 18:32 | -6.22571 | 39.57546 | 8788 ft | 286 kts | 304° |
| 2026-05-05 18:32 | -6.21462 | 39.55890 | 8483 ft | 285 kts | 304° |
| 2026-05-05 18:33 | -6.20354 | 39.54244 | 8199 ft | 284 kts | 304° |
| 2026-05-05 18:33 | -6.19246 | 39.52604 | 7910 ft | 283 kts | 304° |
| 2026-05-05 18:33 | -6.18140 | 39.50972 | 7620 ft | 282 kts | 304° |
| 2026-05-05 18:33 | -6.17034 | 39.49344 | 7329 ft | 281 kts | 304° |
| 2026-05-05 18:34 | -6.15931 | 39.47721 | 7040 ft | 281 kts | 303° |
| 2026-05-05 18:34 | -6.14831 | 39.46106 | 6747 ft | 280 kts | 303° |
| 2026-05-05 18:34 | -6.13731 | 39.44489 | 6444 ft | 280 kts | 303° |
| 2026-05-05 18:34 | -6.12633 | 39.42877 | 6142 ft | 279 kts | 303° |
| 2026-05-05 18:35 | -6.11537 | 39.41268 | 5840 ft | 278 kts | 303° |
| 2026-05-05 18:35 | -6.10446 | 39.39667 | 5551 ft | 277 kts | 303° |
| 2026-05-05 18:35 | -6.09376 | 39.38097 | 5271 ft | 275 kts | 303° |
| 2026-05-05 18:35 | -6.08299 | 39.36517 | 5002 ft | 273 kts | 303° |
| 2026-05-05 18:36 | -6.07231 | 39.34949 | 4719 ft | 271 kts | 302° |
| 2026-05-05 18:36 | -6.06168 | 39.33391 | 4481 ft | 268 kts | 302° |
| 2026-05-05 18:36 | -6.05134 | 39.31876 | 4368 ft | 259 kts | 302° |
| 2026-05-05 18:36 | -6.04130 | 39.30399 | 4251 ft | 252 kts | 301° |
| 2026-05-05 18:37 | -6.03363 | 39.28860 | 4134 ft | 242 kts | 285° |
| 2026-05-05 18:37 | -6.02997 | 39.27252 | 4036 ft | 232 kts | 275° |
| 2026-05-05 18:37 | -6.02836 | 39.25673 | 3942 ft | 223 kts | 271° |
| 2026-05-05 18:37 | -6.02738 | 39.24127 | 3735 ft | 222 kts | 269° |
| 2026-05-05 18:38 | -6.02743 | 39.22584 | 3533 ft | 219 kts | 259° |
| 2026-05-05 18:38 | -6.03338 | 39.21258 | 3323 ft | 204 kts | 221° |
| 2026-05-05 18:38 | -6.04552 | 39.20677 | 3121 ft | 191 kts | 185° |
| 2026-05-05 18:38 | -6.05845 | 39.20751 | 2912 ft | 181 kts | 171° |
| 2026-05-05 18:39 | -6.07052 | 39.20931 | 2683 ft | 170 kts | 172° |
| 2026-05-05 18:39 | -6.08202 | 39.21069 | 2473 ft | 164 kts | 173° |
| 2026-05-05 18:39 | -6.09332 | 39.21189 | 2274 ft | 163 kts | 174° |
| 2026-05-05 18:39 | -6.10467 | 39.21305 | 2061 ft | 164 kts | 173° |
| 2026-05-05 18:40 | -6.11561 | 39.21415 | 1864 ft | 157 kts | 173° |
| 2026-05-05 18:40 | -6.12632 | 39.21523 | 1650 ft | 153 kts | 173° |
| 2026-05-05 18:40 | -6.13647 | 39.21626 | 1486 ft | 135 kts | 173° |
| 2026-05-05 18:40 | -6.14535 | 39.21715 | 1297 ft | 127 kts | 173° |
| 2026-05-05 18:41 | -6.15428 | 39.21806 | 1128 ft | 131 kts | 173° |
| 2026-05-05 18:41 | -6.16335 | 39.21897 | 967 ft | 131 kts | 172° |
| 2026-05-05 18:41 | -6.17253 | 39.21988 | 820 ft | 134 kts | 174° |
| 2026-05-05 18:41 | -6.18184 | 39.22072 | 641 ft | 135 kts | 173° |
| 2026-05-05 18:42 | -6.19123 | 39.22173 | 481 ft | 136 kts | 171° |
| 2026-05-05 18:42 | -6.20078 | 39.22269 | 309 ft | 140 kts | 172° |
| 2026-05-05 18:42 | -6.21038 | 39.22370 | 171 ft | 139 kts | 172° |
| 2026-05-05 18:42 | -6.21987 | 39.22472 | 56 ft | 130 kts | 173° |
| 2026-05-05 18:43 | -6.22697 | 39.22542 | 55 ft | 52 kts | 174° |
| 2026-05-05 18:43 | -6.22930 | 39.22564 | 56 ft | 20 kts | 177° |
| 2026-05-05 18:43 | -6.22993 | 39.22492 | 55 ft | 15 kts | 259° |
| 2026-05-05 18:43 | -6.22997 | 39.22463 | 55 ft | 0 kts | 264° |
| 2026-05-05 18:44 | -6.22998 | 39.22450 | 55 ft | 5 kts | 267° |
| 2026-05-05 18:44 | -6.22980 | 39.22408 | 51 ft | 9 kts | 321° |
| 2026-05-05 18:44 | -6.22905 | 39.22390 | 54 ft | 14 kts | 353° |
| 2026-05-05 18:44 | -6.22788 | 39.22376 | 56 ft | 20 kts | 354° |
| 2026-05-05 18:45 | -6.22637 | 39.22361 | 57 ft | 23 kts | 354° |
| 2026-05-05 18:45 | -6.22500 | 39.22348 | 57 ft | 19 kts | 354° |
| 2026-05-05 18:45 | -6.22379 | 39.22337 | 56 ft | 19 kts | 354° |
| 2026-05-05 18:45 | -6.22275 | 39.22326 | 55 ft | 16 kts | 354° |
| 2026-05-05 18:46 | -6.22216 | 39.22301 | 56 ft | 9 kts | 285° |
| 2026-05-05 18:46 | -6.22217 | 39.22249 | 57 ft | 0 kts | 265° |
| 2026-05-05 18:49 | -6.21821 | 39.22196 | 57 ft | 0 kts | 264° |